sensor_id;sensor_type;location;lat;lon;timestamp;P1;durP1;ratioP1;P2;durP2;ratioP2
35239;SDS011;21376;50.954;4.716;2024-01-06T00:04:37;16.15;;;6.18;;
35239;SDS011;21376;50.954;4.716;2024-01-06T00:07:03;23.40;;;7.30;;
35239;SDS011;21376;50.954;4.716;2024-01-06T00:09:29;15.32;;;6.75;;
35239;SDS011;21376;50.954;4.716;2024-01-06T00:11:57;14.80;;;6.85;;
35239;SDS011;21376;50.954;4.716;2024-01-06T00:14:26;16.08;;;6.63;;
35239;SDS011;21376;50.954;4.716;2024-01-06T00:16:58;16.60;;;7.35;;
35239;SDS011;21376;50.954;4.716;2024-01-06T00:19:27;16.15;;;7.85;;
35239;SDS011;21376;50.954;4.716;2024-01-06T00:21:53;18.75;;;7.97;;
35239;SDS011;21376;50.954;4.716;2024-01-06T00:26:56;19.70;;;7.80;;
35239;SDS011;21376;50.954;4.716;2024-01-06T00:29:22;19.23;;;9.20;;
35239;SDS011;21376;50.954;4.716;2024-01-06T00:31:51;17.40;;;8.68;;
35239;SDS011;21376;50.954;4.716;2024-01-06T00:34:16;24.27;;;10.35;;
35239;SDS011;21376;50.954;4.716;2024-01-06T00:36:42;20.40;;;9.75;;
35239;SDS011;21376;50.954;4.716;2024-01-06T00:39:11;19.20;;;10.27;;
35239;SDS011;21376;50.954;4.716;2024-01-06T00:41:37;17.73;;;10.52;;
35239;SDS011;21376;50.954;4.716;2024-01-06T00:49:03;26.17;;;12.50;;
35239;SDS011;21376;50.954;4.716;2024-01-06T00:51:31;24.60;;;11.73;;
35239;SDS011;21376;50.954;4.716;2024-01-06T00:54:00;24.05;;;11.90;;
35239;SDS011;21376;50.954;4.716;2024-01-06T00:58:55;28.08;;;12.73;;
35239;SDS011;21376;50.954;4.716;2024-01-06T01:03:55;28.55;;;11.82;;
35239;SDS011;21376;50.954;4.716;2024-01-06T01:06:20;23.15;;;11.90;;
35239;SDS011;21376;50.954;4.716;2024-01-06T01:09:04;26.55;;;11.25;;
35239;SDS011;21376;50.954;4.716;2024-01-06T01:13:59;20.15;;;11.13;;
35239;SDS011;21376;50.954;4.716;2024-01-06T01:18:55;25.05;;;10.82;;
35239;SDS011;21376;50.954;4.716;2024-01-06T01:21:22;22.50;;;11.30;;
35239;SDS011;21376;50.954;4.716;2024-01-06T01:26:58;18.23;;;10.55;;
35239;SDS011;21376;50.954;4.716;2024-01-06T01:29:28;19.98;;;11.38;;
35239;SDS011;21376;50.954;4.716;2024-01-06T01:32:00;21.08;;;10.18;;
35239;SDS011;21376;50.954;4.716;2024-01-06T01:34:26;16.50;;;10.65;;
35239;SDS011;21376;50.954;4.716;2024-01-06T01:36:53;23.08;;;11.32;;
35239;SDS011;21376;50.954;4.716;2024-01-06T01:39:22;16.85;;;10.93;;
35239;SDS011;21376;50.954;4.716;2024-01-06T01:44:20;19.52;;;12.15;;
35239;SDS011;21376;50.954;4.716;2024-01-06T01:46:45;23.23;;;12.68;;
35239;SDS011;21376;50.954;4.716;2024-01-06T01:49:12;23.08;;;12.48;;
35239;SDS011;21376;50.954;4.716;2024-01-06T01:54:12;20.23;;;12.80;;
35239;SDS011;21376;50.954;4.716;2024-01-06T01:56:40;23.23;;;12.30;;
35239;SDS011;21376;50.954;4.716;2024-01-06T01:59:11;22.38;;;12.65;;
35239;SDS011;21376;50.954;4.716;2024-01-06T02:01:46;20.45;;;12.25;;
35239;SDS011;21376;50.954;4.716;2024-01-06T02:04:18;20.42;;;11.82;;
35239;SDS011;21376;50.954;4.716;2024-01-06T02:06:44;17.92;;;11.05;;
35239;SDS011;21376;50.954;4.716;2024-01-06T02:12:00;16.90;;;11.20;;
35239;SDS011;21376;50.954;4.716;2024-01-06T02:14:31;18.75;;;11.30;;
35239;SDS011;21376;50.954;4.716;2024-01-06T02:16:58;20.10;;;11.63;;
35239;SDS011;21376;50.954;4.716;2024-01-06T02:19:27;17.30;;;11.30;;
35239;SDS011;21376;50.954;4.716;2024-01-06T02:21:53;17.40;;;10.32;;
35239;SDS011;21376;50.954;4.716;2024-01-06T02:24:21;17.63;;;10.25;;
35239;SDS011;21376;50.954;4.716;2024-01-06T02:26:46;18.25;;;10.38;;
35239;SDS011;21376;50.954;4.716;2024-01-06T02:29:14;25.45;;;11.57;;
35239;SDS011;21376;50.954;4.716;2024-01-06T02:31:41;19.45;;;10.43;;
35239;SDS011;21376;50.954;4.716;2024-01-06T02:34:09;18.63;;;10.55;;
35239;SDS011;21376;50.954;4.716;2024-01-06T02:36:35;21.90;;;11.15;;
35239;SDS011;21376;50.954;4.716;2024-01-06T02:41:31;29.23;;;12.27;;
35239;SDS011;21376;50.954;4.716;2024-01-06T02:43:57;30.55;;;12.18;;
35239;SDS011;21376;50.954;4.716;2024-01-06T02:48:55;28.08;;;13.82;;
35239;SDS011;21376;50.954;4.716;2024-01-06T02:51:24;39.83;;;13.70;;
35239;SDS011;21376;50.954;4.716;2024-01-06T02:54:01;32.58;;;13.52;;
35239;SDS011;21376;50.954;4.716;2024-01-06T02:56:29;34.00;;;14.05;;
35239;SDS011;21376;50.954;4.716;2024-01-06T02:58:55;35.13;;;14.52;;
35239;SDS011;21376;50.954;4.716;2024-01-06T03:01:24;41.47;;;15.02;;
35239;SDS011;21376;50.954;4.716;2024-01-06T03:03:51;35.58;;;14.18;;
35239;SDS011;21376;50.954;4.716;2024-01-06T03:06:16;39.28;;;15.65;;
35239;SDS011;21376;50.954;4.716;2024-01-06T03:11:14;38.70;;;15.98;;
35239;SDS011;21376;50.954;4.716;2024-01-06T03:13:40;40.65;;;15.55;;
35239;SDS011;21376;50.954;4.716;2024-01-06T03:16:06;39.55;;;15.30;;
35239;SDS011;21376;50.954;4.716;2024-01-06T03:18:34;44.45;;;16.75;;
35239;SDS011;21376;50.954;4.716;2024-01-06T03:21:00;42.92;;;16.88;;
35239;SDS011;21376;50.954;4.716;2024-01-06T03:23:29;40.08;;;16.67;;
35239;SDS011;21376;50.954;4.716;2024-01-06T03:28:23;48.63;;;18.55;;
35239;SDS011;21376;50.954;4.716;2024-01-06T03:30:50;47.47;;;19.27;;
35239;SDS011;21376;50.954;4.716;2024-01-06T03:33:17;52.72;;;20.00;;
35239;SDS011;21376;50.954;4.716;2024-01-06T03:35:44;55.67;;;19.75;;
35239;SDS011;21376;50.954;4.716;2024-01-06T03:38:12;57.30;;;20.83;;
35239;SDS011;21376;50.954;4.716;2024-01-06T03:40:39;51.95;;;19.50;;
35239;SDS011;21376;50.954;4.716;2024-01-06T03:43:08;52.97;;;19.40;;
35239;SDS011;21376;50.954;4.716;2024-01-06T03:45:33;47.40;;;20.05;;
35239;SDS011;21376;50.954;4.716;2024-01-06T03:48:00;54.35;;;20.55;;
35239;SDS011;21376;50.954;4.716;2024-01-06T03:50:27;67.28;;;20.73;;
35239;SDS011;21376;50.954;4.716;2024-01-06T03:55:28;52.50;;;20.40;;
35239;SDS011;21376;50.954;4.716;2024-01-06T03:57:57;58.85;;;21.05;;
35239;SDS011;21376;50.954;4.716;2024-01-06T04:00:26;53.35;;;20.98;;
35239;SDS011;21376;50.954;4.716;2024-01-06T04:03:01;67.82;;;21.23;;
35239;SDS011;21376;50.954;4.716;2024-01-06T04:05:38;58.20;;;21.50;;
35239;SDS011;21376;50.954;4.716;2024-01-06T04:08:10;52.22;;;21.33;;
35239;SDS011;21376;50.954;4.716;2024-01-06T04:10:39;48.10;;;19.30;;
35239;SDS011;21376;50.954;4.716;2024-01-06T04:16:20;45.13;;;19.48;;
35239;SDS011;21376;50.954;4.716;2024-01-06T04:18:46;48.85;;;18.67;;
35239;SDS011;21376;50.954;4.716;2024-01-06T04:21:14;45.63;;;19.20;;
35239;SDS011;21376;50.954;4.716;2024-01-06T04:23:43;42.55;;;17.23;;
35239;SDS011;21376;50.954;4.716;2024-01-06T04:26:09;46.80;;;17.23;;
35239;SDS011;21376;50.954;4.716;2024-01-06T04:28:35;44.63;;;17.15;;
35239;SDS011;21376;50.954;4.716;2024-01-06T04:31:01;42.45;;;17.05;;
35239;SDS011;21376;50.954;4.716;2024-01-06T04:33:27;49.95;;;17.38;;
35239;SDS011;21376;50.954;4.716;2024-01-06T04:35:53;44.85;;;16.77;;
35239;SDS011;21376;50.954;4.716;2024-01-06T04:38:18;43.85;;;18.00;;
35239;SDS011;21376;50.954;4.716;2024-01-06T04:40:45;42.42;;;16.77;;
35239;SDS011;21376;50.954;4.716;2024-01-06T04:45:43;40.63;;;15.90;;
35239;SDS011;21376;50.954;4.716;2024-01-06T04:50:41;37.80;;;15.45;;
35239;SDS011;21376;50.954;4.716;2024-01-06T04:58:30;39.00;;;17.95;;
35239;SDS011;21376;50.954;4.716;2024-01-06T05:03:28;37.85;;;17.42;;
35239;SDS011;21376;50.954;4.716;2024-01-06T05:05:54;33.70;;;17.15;;
35239;SDS011;21376;50.954;4.716;2024-01-06T05:08:20;33.33;;;17.75;;
35239;SDS011;21376;50.954;4.716;2024-01-06T05:11:02;39.05;;;18.52;;
35239;SDS011;21376;50.954;4.716;2024-01-06T05:16:00;38.35;;;18.95;;
35239;SDS011;21376;50.954;4.716;2024-01-06T05:20:56;42.60;;;18.50;;
35239;SDS011;21376;50.954;4.716;2024-01-06T05:23:28;35.05;;;18.52;;
35239;SDS011;21376;50.954;4.716;2024-01-06T05:31:13;39.08;;;18.58;;
35239;SDS011;21376;50.954;4.716;2024-01-06T05:33:45;38.55;;;18.77;;
35239;SDS011;21376;50.954;4.716;2024-01-06T05:36:18;34.13;;;18.38;;
35239;SDS011;21376;50.954;4.716;2024-01-06T05:38:46;33.47;;;18.75;;
35239;SDS011;21376;50.954;4.716;2024-01-06T05:41:15;34.80;;;17.98;;
35239;SDS011;21376;50.954;4.716;2024-01-06T05:46:20;32.47;;;18.15;;
35239;SDS011;21376;50.954;4.716;2024-01-06T05:48:57;30.77;;;17.40;;
35239;SDS011;21376;50.954;4.716;2024-01-06T05:51:43;37.25;;;17.48;;
35239;SDS011;21376;50.954;4.716;2024-01-06T05:54:13;36.03;;;17.75;;
35239;SDS011;21376;50.954;4.716;2024-01-06T05:59:10;37.35;;;18.17;;
35239;SDS011;21376;50.954;4.716;2024-01-06T06:01:46;39.17;;;17.90;;
35239;SDS011;21376;50.954;4.716;2024-01-06T06:04:18;38.10;;;18.27;;
35239;SDS011;21376;50.954;4.716;2024-01-06T06:06:44;34.40;;;18.55;;
35239;SDS011;21376;50.954;4.716;2024-01-06T06:14:32;32.00;;;17.02;;
35239;SDS011;21376;50.954;4.716;2024-01-06T06:17:01;35.58;;;16.75;;
35239;SDS011;21376;50.954;4.716;2024-01-06T06:24:26;18.83;;;10.38;;
35239;SDS011;21376;50.954;4.716;2024-01-06T06:29:21;17.42;;;10.50;;
35239;SDS011;21376;50.954;4.716;2024-01-06T06:31:50;14.85;;;9.32;;
35239;SDS011;21376;50.954;4.716;2024-01-06T06:34:18;16.17;;;9.43;;
35239;SDS011;21376;50.954;4.716;2024-01-06T06:36:45;17.23;;;9.30;;
35239;SDS011;21376;50.954;4.716;2024-01-06T06:39:13;15.98;;;10.25;;
35239;SDS011;21376;50.954;4.716;2024-01-06T06:41:42;19.90;;;9.45;;
35239;SDS011;21376;50.954;4.716;2024-01-06T06:44:17;16.65;;;10.43;;
35239;SDS011;21376;50.954;4.716;2024-01-06T06:49:47;14.95;;;9.32;;
35239;SDS011;21376;50.954;4.716;2024-01-06T06:52:16;16.40;;;9.82;;
35239;SDS011;21376;50.954;4.716;2024-01-06T06:54:52;19.83;;;10.82;;
35239;SDS011;21376;50.954;4.716;2024-01-06T06:57:18;19.35;;;10.40;;
35239;SDS011;21376;50.954;4.716;2024-01-06T07:02:16;19.27;;;10.73;;
35239;SDS011;21376;50.954;4.716;2024-01-06T07:04:43;19.35;;;12.15;;
35239;SDS011;21376;50.954;4.716;2024-01-06T07:07:09;22.42;;;12.10;;
35239;SDS011;21376;50.954;4.716;2024-01-06T07:09:34;25.25;;;14.98;;
35239;SDS011;21376;50.954;4.716;2024-01-06T07:14:44;27.75;;;15.57;;
35239;SDS011;21376;50.954;4.716;2024-01-06T07:19:42;28.85;;;15.43;;
35239;SDS011;21376;50.954;4.716;2024-01-06T07:22:08;29.08;;;16.35;;
35239;SDS011;21376;50.954;4.716;2024-01-06T07:24:37;28.27;;;16.70;;
35239;SDS011;21376;50.954;4.716;2024-01-06T07:27:08;26.88;;;15.95;;
35239;SDS011;21376;50.954;4.716;2024-01-06T07:29:38;29.25;;;16.38;;
35239;SDS011;21376;50.954;4.716;2024-01-06T07:34:35;28.27;;;15.50;;
35239;SDS011;21376;50.954;4.716;2024-01-06T07:37:05;30.13;;;16.15;;
35239;SDS011;21376;50.954;4.716;2024-01-06T07:42:03;29.60;;;16.65;;
35239;SDS011;21376;50.954;4.716;2024-01-06T07:47:01;30.80;;;15.35;;
35239;SDS011;21376;50.954;4.716;2024-01-06T07:49:33;28.27;;;15.82;;
35239;SDS011;21376;50.954;4.716;2024-01-06T07:52:01;29.58;;;15.18;;
35239;SDS011;21376;50.954;4.716;2024-01-06T07:59:27;29.70;;;16.23;;
35239;SDS011;21376;50.954;4.716;2024-01-06T08:01:56;27.88;;;15.05;;
35239;SDS011;21376;50.954;4.716;2024-01-06T08:04:22;32.28;;;15.52;;
35239;SDS011;21376;50.954;4.716;2024-01-06T08:09:41;26.67;;;15.40;;
35239;SDS011;21376;50.954;4.716;2024-01-06T08:12:15;29.05;;;16.38;;
35239;SDS011;21376;50.954;4.716;2024-01-06T08:17:13;32.15;;;15.63;;
35239;SDS011;21376;50.954;4.716;2024-01-06T08:19:41;31.25;;;14.88;;
35239;SDS011;21376;50.954;4.716;2024-01-06T08:22:07;29.63;;;15.52;;
35239;SDS011;21376;50.954;4.716;2024-01-06T08:24:36;31.08;;;15.60;;
35239;SDS011;21376;50.954;4.716;2024-01-06T08:27:04;24.17;;;13.18;;
35239;SDS011;21376;50.954;4.716;2024-01-06T08:29:33;24.73;;;12.60;;
35239;SDS011;21376;50.954;4.716;2024-01-06T08:32:01;25.23;;;13.38;;
35239;SDS011;21376;50.954;4.716;2024-01-06T08:37:02;24.02;;;12.90;;
35239;SDS011;21376;50.954;4.716;2024-01-06T08:39:35;23.85;;;12.70;;
35239;SDS011;21376;50.954;4.716;2024-01-06T08:55:46;18.58;;;11.27;;
35239;SDS011;21376;50.954;4.716;2024-01-06T09:06:23;23.50;;;12.13;;
35239;SDS011;21376;50.954;4.716;2024-01-06T09:09:04;17.60;;;10.35;;
35239;SDS011;21376;50.954;4.716;2024-01-06T09:11:37;17.45;;;10.02;;
35239;SDS011;21376;50.954;4.716;2024-01-06T09:16:34;23.60;;;12.75;;
35239;SDS011;21376;50.954;4.716;2024-01-06T09:21:32;15.50;;;9.25;;
35239;SDS011;21376;50.954;4.716;2024-01-06T09:24:01;15.93;;;8.60;;
35239;SDS011;21376;50.954;4.716;2024-01-06T09:26:34;15.88;;;8.45;;
35239;SDS011;21376;50.954;4.716;2024-01-06T09:29:18;11.18;;;7.30;;
35239;SDS011;21376;50.954;4.716;2024-01-06T09:31:47;13.95;;;7.75;;
35239;SDS011;21376;50.954;4.716;2024-01-06T09:34:15;14.63;;;8.00;;
35239;SDS011;21376;50.954;4.716;2024-01-06T09:36:44;14.25;;;7.78;;
35239;SDS011;21376;50.954;4.716;2024-01-06T09:39:13;11.60;;;7.35;;
35239;SDS011;21376;50.954;4.716;2024-01-06T09:44:18;13.05;;;8.27;;
35239;SDS011;21376;50.954;4.716;2024-01-06T09:46:45;11.85;;;7.05;;
35239;SDS011;21376;50.954;4.716;2024-01-06T09:51:43;17.88;;;7.65;;
35239;SDS011;21376;50.954;4.716;2024-01-06T09:54:15;13.13;;;7.45;;
35239;SDS011;21376;50.954;4.716;2024-01-06T09:56:43;13.43;;;7.88;;
35239;SDS011;21376;50.954;4.716;2024-01-06T10:05:15;16.08;;;8.52;;
35239;SDS011;21376;50.954;4.716;2024-01-06T10:10:11;16.70;;;7.90;;
35239;SDS011;21376;50.954;4.716;2024-01-06T10:15:11;16.05;;;8.82;;
35239;SDS011;21376;50.954;4.716;2024-01-06T10:20:44;17.95;;;9.75;;
35239;SDS011;21376;50.954;4.716;2024-01-06T10:23:13;16.00;;;8.85;;
35239;SDS011;21376;50.954;4.716;2024-01-06T10:25:42;15.35;;;8.70;;
35239;SDS011;21376;50.954;4.716;2024-01-06T10:28:11;14.98;;;8.35;;
35239;SDS011;21376;50.954;4.716;2024-01-06T10:30:41;19.98;;;9.02;;
35239;SDS011;21376;50.954;4.716;2024-01-06T10:41:45;15.63;;;9.18;;
35239;SDS011;21376;50.954;4.716;2024-01-06T10:46:45;18.00;;;9.77;;
35239;SDS011;21376;50.954;4.716;2024-01-06T10:52:38;13.75;;;8.27;;
35239;SDS011;21376;50.954;4.716;2024-01-06T10:55:22;14.32;;;8.10;;
35239;SDS011;21376;50.954;4.716;2024-01-06T10:57:53;13.50;;;7.80;;
35239;SDS011;21376;50.954;4.716;2024-01-06T11:05:45;15.15;;;8.27;;
35239;SDS011;21376;50.954;4.716;2024-01-06T11:08:15;14.63;;;8.18;;
35239;SDS011;21376;50.954;4.716;2024-01-06T11:10:45;14.55;;;8.45;;
35239;SDS011;21376;50.954;4.716;2024-01-06T11:13:21;14.77;;;8.35;;
35239;SDS011;21376;50.954;4.716;2024-01-06T11:15:51;12.70;;;7.97;;
35239;SDS011;21376;50.954;4.716;2024-01-06T11:18:31;14.90;;;7.88;;
35239;SDS011;21376;50.954;4.716;2024-01-06T11:21:22;12.65;;;7.57;;
35239;SDS011;21376;50.954;4.716;2024-01-06T11:54:07;10.85;;;7.30;;
35239;SDS011;21376;50.954;4.716;2024-01-06T12:06:00;9.93;;;6.90;;
35239;SDS011;21376;50.954;4.716;2024-01-06T12:08:28;10.60;;;7.28;;
35239;SDS011;21376;50.954;4.716;2024-01-06T12:11:04;11.65;;;7.30;;
35239;SDS011;21376;50.954;4.716;2024-01-06T12:13:30;8.70;;;6.40;;
35239;SDS011;21376;50.954;4.716;2024-01-06T12:18:42;8.73;;;6.00;;
35239;SDS011;21376;50.954;4.716;2024-01-06T12:21:12;8.80;;;6.00;;
35239;SDS011;21376;50.954;4.716;2024-01-06T12:26:10;10.30;;;6.65;;
35239;SDS011;21376;50.954;4.716;2024-01-06T12:34:46;10.50;;;7.32;;
35239;SDS011;21376;50.954;4.716;2024-01-06T12:37:13;10.00;;;7.07;;
35239;SDS011;21376;50.954;4.716;2024-01-06T12:39:41;13.00;;;8.10;;
35239;SDS011;21376;50.954;4.716;2024-01-06T12:42:15;10.98;;;7.72;;
35239;SDS011;21376;50.954;4.716;2024-01-06T14:34:34;20.23;;;8.45;;
35239;SDS011;21376;50.954;4.716;2024-01-06T14:39:32;14.55;;;7.43;;
35239;SDS011;21376;50.954;4.716;2024-01-06T14:42:04;11.88;;;8.18;;
35239;SDS011;21376;50.954;4.716;2024-01-06T14:44:31;12.68;;;7.93;;
35239;SDS011;21376;50.954;4.716;2024-01-06T14:46:58;15.93;;;8.35;;
35239;SDS011;21376;50.954;4.716;2024-01-06T14:49:25;14.15;;;8.20;;
35239;SDS011;21376;50.954;4.716;2024-01-06T14:51:52;17.33;;;9.38;;
35239;SDS011;21376;50.954;4.716;2024-01-06T14:54:18;13.75;;;10.57;;
35239;SDS011;21376;50.954;4.716;2024-01-06T14:56:49;16.75;;;9.25;;
35239;SDS011;21376;50.954;4.716;2024-01-06T14:59:15;17.23;;;9.82;;
35239;SDS011;21376;50.954;4.716;2024-01-06T15:01:58;12.82;;;8.63;;
35239;SDS011;21376;50.954;4.716;2024-01-06T15:04:26;14.17;;;8.20;;
35239;SDS011;21376;50.954;4.716;2024-01-06T15:06:55;10.75;;;7.53;;
35239;SDS011;21376;50.954;4.716;2024-01-06T15:09:24;10.57;;;7.60;;
35239;SDS011;21376;50.954;4.716;2024-01-06T15:11:52;10.73;;;7.53;;
35239;SDS011;21376;50.954;4.716;2024-01-06T15:14:18;11.05;;;7.75;;
35239;SDS011;21376;50.954;4.716;2024-01-06T15:16:45;12.98;;;8.10;;
35239;SDS011;21376;50.954;4.716;2024-01-06T15:19:11;15.43;;;7.70;;
35239;SDS011;21376;50.954;4.716;2024-01-06T15:21:40;12.25;;;8.55;;
35239;SDS011;21376;50.954;4.716;2024-01-06T15:26:41;14.75;;;8.98;;
35239;SDS011;21376;50.954;4.716;2024-01-06T15:29:10;13.63;;;8.57;;
35239;SDS011;21376;50.954;4.716;2024-01-06T15:31:40;13.85;;;7.82;;
35239;SDS011;21376;50.954;4.716;2024-01-06T15:34:07;11.65;;;8.20;;
35239;SDS011;21376;50.954;4.716;2024-01-06T15:36:35;12.30;;;8.38;;
35239;SDS011;21376;50.954;4.716;2024-01-06T15:39:04;12.20;;;8.07;;
35239;SDS011;21376;50.954;4.716;2024-01-06T15:44:10;14.70;;;8.90;;
35239;SDS011;21376;50.954;4.716;2024-01-06T15:46:39;15.68;;;9.13;;
35239;SDS011;21376;50.954;4.716;2024-01-06T15:52:28;19.40;;;10.20;;
35239;SDS011;21376;50.954;4.716;2024-01-06T15:54:58;13.35;;;9.65;;
35239;SDS011;21376;50.954;4.716;2024-01-06T15:57:30;15.90;;;9.52;;
35239;SDS011;21376;50.954;4.716;2024-01-06T16:00:01;14.35;;;9.82;;
35239;SDS011;21376;50.954;4.716;2024-01-06T16:04:57;16.08;;;9.75;;
35239;SDS011;21376;50.954;4.716;2024-01-06T16:09:55;15.13;;;9.65;;
35239;SDS011;21376;50.954;4.716;2024-01-06T16:12:24;16.60;;;9.77;;
35239;SDS011;21376;50.954;4.716;2024-01-06T16:14:53;16.27;;;10.35;;
35239;SDS011;21376;50.954;4.716;2024-01-06T17:05:51;12.95;;;8.68;;
35239;SDS011;21376;50.954;4.716;2024-01-06T17:08:24;10.52;;;7.63;;
35239;SDS011;21376;50.954;4.716;2024-01-06T17:10:53;10.02;;;7.35;;
35239;SDS011;21376;50.954;4.716;2024-01-06T17:13:19;11.48;;;7.60;;
35239;SDS011;21376;50.954;4.716;2024-01-06T17:21:47;11.38;;;7.45;;
35239;SDS011;21376;50.954;4.716;2024-01-06T17:24:13;11.23;;;7.30;;
35239;SDS011;21376;50.954;4.716;2024-01-06T17:26:42;10.73;;;7.38;;
35239;SDS011;21376;50.954;4.716;2024-01-06T17:32:41;9.57;;;6.55;;
35239;SDS011;21376;50.954;4.716;2024-01-06T17:37:56;10.63;;;7.13;;
35239;SDS011;21376;50.954;4.716;2024-01-06T17:40:25;10.07;;;7.15;;
35239;SDS011;21376;50.954;4.716;2024-01-06T17:45:23;10.05;;;7.25;;
35239;SDS011;21376;50.954;4.716;2024-01-06T17:47:53;11.68;;;7.72;;
35239;SDS011;21376;50.954;4.716;2024-01-06T17:50:22;12.27;;;8.40;;
35239;SDS011;21376;50.954;4.716;2024-01-06T17:55:19;12.10;;;7.47;;
35239;SDS011;21376;50.954;4.716;2024-01-06T17:57:51;12.95;;;8.10;;
35239;SDS011;21376;50.954;4.716;2024-01-06T18:00:17;11.95;;;7.55;;
35239;SDS011;21376;50.954;4.716;2024-01-06T18:02:49;12.23;;;7.68;;
35239;SDS011;21376;50.954;4.716;2024-01-06T18:05:18;13.35;;;8.00;;
35239;SDS011;21376;50.954;4.716;2024-01-06T18:07:47;11.35;;;7.82;;
35239;SDS011;21376;50.954;4.716;2024-01-06T18:10:19;12.68;;;8.38;;
35239;SDS011;21376;50.954;4.716;2024-01-06T18:12:48;12.43;;;8.20;;
35239;SDS011;21376;50.954;4.716;2024-01-06T18:15:19;11.65;;;8.65;;
35239;SDS011;21376;50.954;4.716;2024-01-06T18:17:51;12.02;;;8.52;;
35239;SDS011;21376;50.954;4.716;2024-01-06T18:20:20;11.27;;;8.20;;
35239;SDS011;21376;50.954;4.716;2024-01-06T18:25:20;13.27;;;9.60;;
35239;SDS011;21376;50.954;4.716;2024-01-06T18:31:10;15.45;;;9.35;;
35239;SDS011;21376;50.954;4.716;2024-01-06T18:33:39;12.70;;;9.25;;
35239;SDS011;21376;50.954;4.716;2024-01-06T18:36:10;14.25;;;8.93;;
35239;SDS011;21376;50.954;4.716;2024-01-06T18:41:08;13.45;;;8.95;;
35239;SDS011;21376;50.954;4.716;2024-01-06T18:46:06;11.02;;;8.77;;
35239;SDS011;21376;50.954;4.716;2024-01-06T18:51:03;13.70;;;7.90;;
35239;SDS011;21376;50.954;4.716;2024-01-06T18:53:39;12.48;;;8.30;;
35239;SDS011;21376;50.954;4.716;2024-01-06T18:56:11;12.52;;;8.38;;
35239;SDS011;21376;50.954;4.716;2024-01-06T19:01:06;10.07;;;7.22;;
35239;SDS011;21376;50.954;4.716;2024-01-06T19:08:45;12.63;;;8.35;;
35239;SDS011;21376;50.954;4.716;2024-01-06T19:11:22;10.75;;;7.57;;
35239;SDS011;21376;50.954;4.716;2024-01-06T19:13:56;12.75;;;8.30;;
35239;SDS011;21376;50.954;4.716;2024-01-06T19:16:21;8.95;;;7.30;;
35239;SDS011;21376;50.954;4.716;2024-01-06T19:18:47;12.20;;;7.85;;
35239;SDS011;21376;50.954;4.716;2024-01-06T19:21:13;10.75;;;7.65;;
35239;SDS011;21376;50.954;4.716;2024-01-06T19:23:42;12.15;;;8.35;;
35239;SDS011;21376;50.954;4.716;2024-01-06T19:26:10;11.18;;;7.65;;
35239;SDS011;21376;50.954;4.716;2024-01-06T19:28:35;13.57;;;8.27;;
35239;SDS011;21376;50.954;4.716;2024-01-06T19:31:04;21.30;;;8.07;;
35239;SDS011;21376;50.954;4.716;2024-01-06T19:33:33;12.80;;;7.93;;
35239;SDS011;21376;50.954;4.716;2024-01-06T19:36:02;14.15;;;8.20;;
35239;SDS011;21376;50.954;4.716;2024-01-06T19:40:58;12.15;;;7.50;;
35239;SDS011;21376;50.954;4.716;2024-01-06T19:43:27;10.27;;;7.55;;
35239;SDS011;21376;50.954;4.716;2024-01-06T19:45:56;12.18;;;8.88;;
35239;SDS011;21376;50.954;4.716;2024-01-06T19:48:25;12.20;;;8.10;;
35239;SDS011;21376;50.954;4.716;2024-01-06T19:51:09;14.10;;;9.80;;
35239;SDS011;21376;50.954;4.716;2024-01-06T19:53:37;21.35;;;12.52;;
35239;SDS011;21376;50.954;4.716;2024-01-06T19:56:03;15.13;;;9.25;;
35239;SDS011;21376;50.954;4.716;2024-01-06T20:23:44;9.98;;;7.00;;
35239;SDS011;21376;50.954;4.716;2024-01-06T20:32:20;11.13;;;8.05;;
35239;SDS011;21376;50.954;4.716;2024-01-06T20:37:23;12.38;;;8.32;;
35239;SDS011;21376;50.954;4.716;2024-01-06T20:39:53;17.92;;;9.38;;
35239;SDS011;21376;50.954;4.716;2024-01-06T20:45:01;12.65;;;8.70;;
35239;SDS011;21376;50.954;4.716;2024-01-06T20:47:30;15.38;;;9.70;;
35239;SDS011;21376;50.954;4.716;2024-01-06T20:50:04;14.40;;;9.05;;
35239;SDS011;21376;50.954;4.716;2024-01-06T20:52:37;12.02;;;9.05;;
35239;SDS011;21376;50.954;4.716;2024-01-06T20:55:11;14.45;;;8.95;;
35239;SDS011;21376;50.954;4.716;2024-01-06T20:57:40;13.27;;;9.00;;
35239;SDS011;21376;50.954;4.716;2024-01-06T21:00:22;11.77;;;8.52;;
35239;SDS011;21376;50.954;4.716;2024-01-06T21:02:52;13.60;;;10.10;;
35239;SDS011;21376;50.954;4.716;2024-01-06T21:05:21;15.55;;;9.63;;
35239;SDS011;21376;50.954;4.716;2024-01-06T21:10:16;15.32;;;10.05;;
35239;SDS011;21376;50.954;4.716;2024-01-06T21:15:55;15.75;;;10.85;;
35239;SDS011;21376;50.954;4.716;2024-01-06T21:18:25;18.07;;;10.90;;
35239;SDS011;21376;50.954;4.716;2024-01-06T21:23:34;15.77;;;10.55;;
35239;SDS011;21376;50.954;4.716;2024-01-06T21:26:03;14.57;;;10.70;;
35239;SDS011;21376;50.954;4.716;2024-01-06T21:31:28;14.07;;;10.60;;
35239;SDS011;21376;50.954;4.716;2024-01-06T21:33:55;15.38;;;10.93;;
35239;SDS011;21376;50.954;4.716;2024-01-06T21:36:24;14.82;;;10.60;;
35239;SDS011;21376;50.954;4.716;2024-01-06T21:38:56;14.73;;;10.82;;
35239;SDS011;21376;50.954;4.716;2024-01-06T21:41:25;17.83;;;10.95;;
35239;SDS011;21376;50.954;4.716;2024-01-06T21:43:54;17.05;;;10.65;;
35239;SDS011;21376;50.954;4.716;2024-01-06T21:46:23;18.85;;;10.80;;
35239;SDS011;21376;50.954;4.716;2024-01-06T21:48:50;16.70;;;11.48;;
35239;SDS011;21376;50.954;4.716;2024-01-06T21:51:16;16.35;;;11.20;;
35239;SDS011;21376;50.954;4.716;2024-01-06T21:56:34;15.98;;;11.48;;
35239;SDS011;21376;50.954;4.716;2024-01-06T21:59:01;15.00;;;10.50;;
35239;SDS011;21376;50.954;4.716;2024-01-06T22:04:00;16.83;;;9.98;;
35239;SDS011;21376;50.954;4.716;2024-01-06T22:09:20;14.23;;;10.20;;
35239;SDS011;21376;50.954;4.716;2024-01-06T22:11:51;14.57;;;9.98;;
35239;SDS011;21376;50.954;4.716;2024-01-06T22:14:23;13.88;;;10.48;;
35239;SDS011;21376;50.954;4.716;2024-01-06T22:19:20;14.60;;;10.07;;
35239;SDS011;21376;50.954;4.716;2024-01-06T22:24:49;17.92;;;12.00;;
35239;SDS011;21376;50.954;4.716;2024-01-06T22:30:04;17.58;;;11.30;;
35239;SDS011;21376;50.954;4.716;2024-01-06T22:32:32;15.10;;;10.65;;
35239;SDS011;21376;50.954;4.716;2024-01-06T22:35:02;16.73;;;11.02;;
35239;SDS011;21376;50.954;4.716;2024-01-06T22:37:31;16.00;;;11.25;;
35239;SDS011;21376;50.954;4.716;2024-01-06T22:40:06;15.65;;;10.50;;
35239;SDS011;21376;50.954;4.716;2024-01-06T22:42:32;17.70;;;10.93;;
35239;SDS011;21376;50.954;4.716;2024-01-06T22:51:15;18.88;;;12.80;;
35239;SDS011;21376;50.954;4.716;2024-01-06T22:53:46;18.15;;;11.70;;
35239;SDS011;21376;50.954;4.716;2024-01-06T22:56:18;18.85;;;11.20;;
35239;SDS011;21376;50.954;4.716;2024-01-06T23:01:48;17.20;;;11.55;;
35239;SDS011;21376;50.954;4.716;2024-01-06T23:06:48;19.35;;;11.93;;
35239;SDS011;21376;50.954;4.716;2024-01-06T23:11:45;18.73;;;12.55;;
35239;SDS011;21376;50.954;4.716;2024-01-06T23:16:43;17.20;;;12.45;;
35239;SDS011;21376;50.954;4.716;2024-01-06T23:19:12;18.75;;;12.38;;
35239;SDS011;21376;50.954;4.716;2024-01-06T23:27:38;19.27;;;12.75;;
35239;SDS011;21376;50.954;4.716;2024-01-06T23:32:36;18.77;;;12.90;;
35239;SDS011;21376;50.954;4.716;2024-01-06T23:35:05;22.92;;;13.50;;
35239;SDS011;21376;50.954;4.716;2024-01-06T23:37:46;21.67;;;13.55;;
35239;SDS011;21376;50.954;4.716;2024-01-06T23:45:16;21.48;;;14.07;;